Time;durP1;ratioP1;P1;durP2;ratioP2;P2;SDS_P1;SDS_P2;PMS_P1;PMS_P2;Temp;Humidity;BMP_temperature;BMP_pressure;BME280_temperature;BME280_humidity;BME280_pressure;Samples;Min_cycle;Max_cycle;Signal;HPM_P1;HPM_P2
2022/04/17 00:00:48;;;;;;;3.78;2.15;;;;;;;3.20;56.15;102621.75;5033160;28;20061;-65
2022/04/17 00:03:15;;;;;;;3.75;2.20;;;;;;;3.21;56.40;102620.03;5046339;28;20045;-66
2022/04/17 00:05:42;;;;;;;5.13;2.40;;;;;;;3.21;56.03;102625.22;5015901;28;20567;-65
2022/04/17 00:08:10;;;;;;;3.63;2.40;;;;;;;3.20;56.77;102626.97;5042173;28;20046;-64
2022/04/17 00:10:37;;;;;;;4.50;2.35;;;;;;;3.16;56.95;102619.13;5032438;28;20069;-66
2022/04/17 00:13:04;;;;;;;6.38;2.55;;;;;;;3.14;57.03;102615.66;5021350;28;20059;-64
2022/04/17 00:15:31;;;;;;;5.72;2.67;;;;;;;3.17;57.48;102615.66;5040205;28;20045;-65
2022/04/17 00:17:58;;;;;;;5.20;2.42;;;;;;;3.16;56.88;102619.13;5047850;28;20068;-65
2022/04/17 00:20:26;;;;;;;5.85;2.65;;;;;;;3.13;56.72;102619.97;5025929;28;20109;-66
2022/04/17 00:22:53;;;;;;;6.50;2.92;;;;;;;3.11;57.32;102616.53;5036416;28;20057;-65
2022/04/17 00:25:21;;;;;;;5.30;2.95;;;;;;;3.10;57.47;102608.69;5028789;28;20120;-65
2022/04/17 00:27:48;;;;;;;5.40;2.30;;;;;;;3.09;57.33;102604.34;5033211;28;20060;-64
2022/04/17 00:30:16;;;;;;;5.50;2.10;;;;;;;3.09;57.40;102612.16;5041069;28;20049;-67
2022/04/17 00:32:43;;;;;;;5.65;2.45;;;;;;;3.11;57.77;102608.72;5033755;28;20068;-65
2022/04/17 00:35:10;;;;;;;4.25;2.08;;;;;;;3.10;57.60;102612.16;5037453;28;20121;-65
2022/04/17 00:37:37;;;;;;;7.13;2.30;;;;;;;3.08;58.16;102607.81;5039318;28;20465;-66
2022/04/17 00:40:06;;;;;;;4.75;2.22;;;;;;;3.10;57.88;102611.28;5036271;28;20057;-64
2022/04/17 00:42:33;;;;;;;4.70;2.33;;;;;;;3.09;58.03;102609.56;5038792;28;20152;-64
2022/04/17 00:45:01;;;;;;;4.40;2.45;;;;;;;3.05;58.01;102604.31;5038131;28;20069;-65
2022/04/17 00:47:28;;;;;;;5.43;2.72;;;;;;;3.04;58.10;102602.59;5044406;28;20053;-65
2022/04/17 00:49:56;;;;;;;4.97;2.58;;;;;;;3.05;58.10;102598.25;5041213;28;20508;-64
2022/04/17 00:52:23;;;;;;;4.50;2.55;;;;;;;3.04;58.50;102597.41;5043400;28;20390;-65
2022/04/17 00:54:50;;;;;;;6.22;2.92;;;;;;;3.00;59.17;102595.63;5022401;28;20053;-64
2022/04/17 00:57:17;;;;;;;6.93;2.58;;;;;;;2.96;58.96;102593.03;5049717;28;20045;-65
2022/04/17 00:59:46;;;;;;;5.07;2.75;;;;;;;2.98;58.75;102593.91;5040808;28;20128;-65
2022/04/17 01:02:14;;;;;;;4.53;2.72;;;;;;;2.99;58.59;102582.63;5044832;28;20050;-65
2022/04/17 01:04:43;;;;;;;3.85;2.78;;;;;;;2.98;59.05;102576.56;5038138;28;20049;-65
2022/04/17 01:07:10;;;;;;;4.50;2.53;;;;;;;2.97;58.92;102576.53;5048958;28;20044;-64
2022/04/17 01:09:38;;;;;;;3.60;2.65;;;;;;;2.97;59.04;102573.94;5029291;28;20049;-63
2022/04/17 01:12:10;;;;;;;4.55;2.40;;;;;;;2.93;58.85;102578.28;5043904;28;20125;-65
2022/04/17 01:14:39;;;;;;;4.72;2.53;;;;;;;2.90;59.18;102588.66;5041396;28;20061;-65
2022/04/17 01:17:07;;;;;;;4.25;2.80;;;;;;;2.89;59.48;102586.06;5044134;28;20048;-65
2022/04/17 01:19:37;;;;;;;4.80;2.85;;;;;;;2.86;59.58;102592.13;5038930;28;20057;-65
2022/04/17 01:22:08;;;;;;;4.05;2.50;;;;;;;2.88;59.71;102593.00;5019718;28;20048;-65
2022/04/17 01:27:23;;;;;;;6.40;3.05;;;;;;;2.74;60.44;102592.91;5037763;28;20039;-67
2022/04/17 01:29:53;;;;;;;5.57;2.33;;;;;;;2.72;60.46;102599.84;5043985;28;20124;-66
2022/04/17 01:32:21;;;;;;;4.55;2.83;;;;;;;2.72;60.83;102596.38;5028317;28;20060;-64
2022/04/17 01:34:49;;;;;;;4.10;1.88;;;;;;;2.69;60.79;102593.75;5038028;28;20056;-66
2022/04/17 01:37:17;;;;;;;4.57;2.63;;;;;;;2.67;61.61;102588.56;5046257;28;20049;-64
2022/04/17 01:39:44;;;;;;;5.63;2.67;;;;;;;2.63;61.30;102585.94;5040909;28;20095;-65
2022/04/17 01:42:12;;;;;;;5.22;2.83;;;;;;;2.63;61.45;102585.94;5038592;28;20421;-64
2022/04/17 01:44:39;;;;;;;4.63;3.05;;;;;;;2.64;61.39;102592.88;5042198;28;20067;-65
2022/04/17 01:47:07;;;;;;;8.55;3.45;;;;;;;2.62;61.77;102594.59;5039725;28;20061;-65
2022/04/17 01:49:34;;;;;;;4.68;2.65;;;;;;;2.61;62.11;102592.84;5038450;28;20057;-63
2022/04/17 01:52:02;;;;;;;7.13;2.85;;;;;;;2.58;62.63;102585.91;5041665;28;20060;-66
2022/04/17 01:54:30;;;;;;;6.28;2.80;;;;;;;2.58;62.32;102585.06;5044576;28;20049;-65
2022/04/17 01:56:58;;;;;;;5.40;3.20;;;;;;;2.57;62.69;102581.59;5048319;28;20057;-64
2022/04/17 01:59:25;;;;;;;3.58;2.55;;;;;;;2.58;63.11;102585.91;5044340;28;20049;-63
2022/04/17 02:01:52;;;;;;;4.22;2.50;;;;;;;2.54;63.90;102586.75;5040073;28;20071;-65
2022/04/17 02:04:20;;;;;;;4.13;3.17;;;;;;;2.51;64.10;102587.59;5037724;28;20340;-65
2022/04/17 02:06:47;;;;;;;5.10;2.50;;;;;;;2.47;63.64;102588.44;5038453;28;20049;-65
2022/04/17 02:09:15;;;;;;;4.95;2.80;;;;;;;2.46;63.38;102578.91;5073088;23;20065;-76
2022/04/17 02:11:45;;;;;;;4.32;2.75;;;;;;;2.46;63.78;102576.31;5034753;28;20044;-76
2022/04/17 02:14:12;;;;;;;4.82;2.63;;;;;;;2.45;63.98;102573.69;5034257;28;20062;-77
2022/04/17 02:16:40;;;;;;;6.35;3.22;;;;;;;2.43;64.34;102573.72;5033988;28;20065;-77
2022/04/17 02:19:08;;;;;;;7.05;2.80;;;;;;;2.41;64.19;102569.34;5049261;28;20048;-76
2022/04/17 02:21:35;;;;;;;5.40;2.80;;;;;;;2.39;63.99;102574.53;5032809;28;20461;-77
2022/04/17 02:24:03;;;;;;;4.30;2.80;;;;;;;2.38;63.66;102571.91;5015082;28;20048;-78
2022/04/17 02:26:31;;;;;;;7.78;3.10;;;;;;;2.35;64.46;102570.19;5047557;28;20051;-79
2022/04/17 02:28:59;;;;;;;5.32;3.05;;;;;;;2.35;64.12;102574.53;5048930;28;20055;-76
2022/04/17 02:31:27;;;;;;;5.78;3.40;;;;;;;2.31;64.90;102575.34;5015287;28;20049;-77
2022/04/17 02:33:54;;;;;;;5.60;3.22;;;;;;;2.30;64.86;102574.50;5028149;28;20061;-77
2022/04/17 02:36:22;;;;;;;4.78;2.85;;;;;;;2.28;64.55;102568.41;5050287;28;20040;-76
2022/04/17 02:38:49;;;;;;;7.00;2.97;;;;;;;2.28;65.35;102573.59;5027847;28;20154;-77
2022/04/17 02:41:16;;;;;;;5.10;3.45;;;;;;;2.27;65.43;102574.47;5030618;28;20074;-78
2022/04/17 02:43:43;;;;;;;5.18;2.80;;;;;;;2.25;65.65;102565.75;5033221;28;20056;-77
2022/04/17 02:46:11;;;;;;;5.38;3.13;;;;;;;2.22;65.86;102561.44;5017939;28;20041;-77
2022/04/17 02:48:39;;;;;;;7.43;3.38;;;;;;;2.19;66.16;102566.59;5065812;28;20051;-76
2022/04/17 02:51:07;;;;;;;4.90;3.30;;;;;;;2.17;66.04;102565.72;5017654;28;20068;-77
2022/04/17 02:53:36;;;;;;;5.47;3.38;;;;;;;2.17;66.20;102570.94;5049711;28;20419;-77
2022/04/17 02:56:03;;;;;;;4.70;2.90;;;;;;;2.16;66.19;102560.50;5022786;28;20127;-77
2022/04/17 02:58:31;;;;;;;6.80;3.92;;;;;;;2.14;65.93;102562.25;5049924;28;20514;-77
2022/04/17 03:06:31;;;;;;;6.93;3.03;;;;;;;2.10;66.63;102560.47;5065979;28;20044;-77
2022/04/17 03:08:59;;;;;;;5.28;3.20;;;;;;;2.08;67.14;102546.63;5045300;28;20087;-77
2022/04/17 03:11:27;;;;;;;5.97;3.28;;;;;;;2.07;67.83;102550.06;5067931;28;20087;-77
2022/04/17 03:13:55;;;;;;;5.95;3.30;;;;;;;2.03;67.92;102552.66;5050795;28;20041;-76
2022/04/17 03:16:22;;;;;;;7.55;3.53;;;;;;;2.01;67.99;102543.09;5035438;28;20048;-75
2022/04/17 03:18:50;;;;;;;6.50;3.22;;;;;;;2.00;67.92;102550.03;5070856;28;20051;-76
2022/04/17 03:21:18;;;;;;;7.55;3.92;;;;;;;1.99;68.16;102537.03;5056928;28;20068;-76
2022/04/17 03:23:45;;;;;;;4.68;3.53;;;;;;;1.97;67.95;102541.31;5030235;28;20040;-78
2022/04/17 03:26:13;;;;;;;6.65;3.17;;;;;;;1.97;68.88;102531.81;5042739;28;20056;-77
2022/04/17 03:28:40;;;;;;;6.80;3.67;;;;;;;1.96;68.66;102534.41;5032639;28;20056;-78
2022/04/17 03:31:08;;;;;;;8.90;3.95;;;;;;;1.95;68.20;102528.34;5051982;28;20045;-77
2022/04/17 03:33:35;;;;;;;6.43;3.13;;;;;;;1.98;68.06;102530.97;5029876;28;20053;-77
2022/04/17 03:36:03;;;;;;;4.90;3.20;;;;;;;2.00;67.95;102526.63;5050487;28;20087;-77
2022/04/17 03:38:30;;;;;;;4.97;3.22;;;;;;;2.04;66.95;102519.75;5053237;28;20048;-77
2022/04/17 03:40:59;;;;;;;5.90;3.30;;;;;;;2.04;67.35;102517.16;5044349;28;20063;-76
2022/04/17 03:43:27;;;;;;;5.90;3.53;;;;;;;2.04;67.51;102517.16;5049048;28;20066;-76
2022/04/17 03:45:54;;;;;;;5.72;3.20;;;;;;;2.03;67.78;102518.00;5023561;28;20057;-78
2022/04/17 03:48:22;;;;;;;9.88;4.47;;;;;;;2.06;67.15;102510.22;5051617;28;20036;-77
2022/04/17 03:50:53;;;;;;;9.73;3.65;;;;;;;2.06;67.21;102504.16;5048794;28;20095;-77
2022/04/17 03:53:20;;;;;;;9.07;3.97;;;;;;;2.04;67.92;102511.94;5051746;28;20075;-77
2022/04/17 03:55:49;;;;;;;7.43;3.92;;;;;;;2.03;68.31;102513.69;5050721;22;20508;-63
2022/04/17 03:58:16;;;;;;;7.43;3.53;;;;;;;2.06;68.39;102511.94;5048688;28;20049;-64
2022/04/17 04:00:44;;;;;;;7.75;3.38;;;;;;;2.09;67.82;102519.78;5045452;28;20103;-63
2022/04/17 04:03:15;;;;;;;5.97;3.25;;;;;;;2.10;67.72;102511.13;5043283;28;20037;-63
2022/04/17 04:05:43;;;;;;;9.35;4.80;;;;;;;2.07;68.66;102509.34;5044526;28;20049;-64
2022/04/17 04:08:10;;;;;;;6.80;3.95;;;;;;;2.07;68.39;102509.34;5048801;28;20044;-63
2022/04/17 04:10:37;;;;;;;8.95;3.53;;;;;;;2.12;67.91;102512.88;5018369;28;20506;-63
2022/04/17 04:13:04;;;;;;;7.53;3.40;;;;;;;2.13;67.68;102509.41;5046726;28;20497;-63
2022/04/17 04:15:33;;;;;;;5.45;3.83;;;;;;;2.15;68.15;102512.88;5027673;28;20052;-62
2022/04/17 04:18:00;;;;;;;5.18;3.60;;;;;;;2.19;67.67;102508.56;5048800;28;20679;-64
2022/04/17 04:20:27;;;;;;;6.32;3.60;;;;;;;2.22;67.57;102504.25;5033919;28;20483;-64
2022/04/17 04:22:55;;;;;;;5.60;3.55;;;;;;;2.27;68.21;102501.69;5030093;28;20100;-63
2022/04/17 04:25:22;;;;;;;5.53;3.42;;;;;;;2.31;68.60;102502.59;5017984;28;20079;-63
2022/04/17 04:30:35;;;;;;;7.53;3.60;;;;;;;2.42;68.68;102517.34;5011675;28;20631;-63
2022/04/17 04:33:03;;;;;;;7.88;4.00;;;;;;;2.51;67.78;102512.19;5015132;28;20091;-64
2022/04/17 04:35:30;;;;;;;6.88;3.92;;;;;;;2.58;68.13;102514.84;5038210;28;20053;-63
2022/04/17 04:38:00;;;;;;;9.50;4.05;;;;;;;2.64;68.38;102514.88;5033391;28;20065;-64
2022/04/17 04:40:29;;;;;;;6.07;3.65;;;;;;;2.70;68.83;102512.28;5048112;28;20045;-62
2022/04/17 04:43:00;;;;;;;6.78;3.83;;;;;;;2.77;69.18;102511.44;5044751;28;20045;-62
2022/04/17 04:48:14;;;;;;;6.05;3.97;;;;;;;2.91;68.98;102517.56;5042158;28;20055;-63
2022/04/17 04:50:42;;;;;;;8.07;3.85;;;;;;;2.98;69.25;102515.88;5041914;28;20277;-64
2022/04/17 04:53:09;;;;;;;8.05;3.65;;;;;;;3.04;68.10;102518.47;5046571;28;20531;-64
2022/04/17 04:55:38;;;;;;;7.78;4.25;;;;;;;3.09;68.10;102518.47;5047494;28;20037;-63
2022/04/17 04:58:05;;;;;;;8.45;3.80;;;;;;;3.19;68.00;102517.63;5048651;28;20073;-64
2022/04/17 05:00:33;;;;;;;9.88;4.78;;;;;;;3.24;67.02;102518.50;5045472;28;20509;-64
2022/04/17 05:03:00;;;;;;;5.85;4.05;;;;;;;3.29;67.02;102522.88;5052699;28;20102;-64
2022/04/17 05:05:28;;;;;;;11.52;4.75;;;;;;;3.26;66.50;102520.25;5046648;28;20056;-62
2022/04/17 05:07:56;;;;;;;6.70;4.20;;;;;;;3.32;65.72;102519.38;5023724;28;20052;-63
2022/04/17 05:10:24;;;;;;;7.13;4.47;;;;;;;3.36;65.54;102522.88;5049136;28;20106;-63
2022/04/17 05:12:51;;;;;;;7.72;4.57;;;;;;;3.46;65.20;102520.25;5050497;28;20119;-63
2022/04/17 05:15:21;;;;;;;11.65;5.57;;;;;;;3.54;65.33;102523.75;5043703;28;20071;-64
2022/04/17 05:17:49;;;;;;;7.93;4.55;;;;;;;3.62;64.60;102517.69;5048293;28;20045;-64
2022/04/17 05:20:16;;;;;;;7.22;4.22;;;;;;;3.68;64.25;102515.06;5048915;28;20084;-64
2022/04/17 05:22:45;;;;;;;8.13;4.78;;;;;;;3.68;64.48;102509.88;5048702;28;20079;-63
2022/04/17 05:25:13;;;;;;;9.07;4.78;;;;;;;3.73;64.32;102516.81;5041895;28;20417;-66
2022/04/17 05:27:40;;;;;;;7.13;4.07;;;;;;;3.78;64.70;102514.19;5042915;28;20056;-62
2022/04/17 05:30:11;;;;;;;8.15;5.07;;;;;;;3.83;64.17;102517.69;5044227;28;20041;-63
2022/04/17 05:32:38;;;;;;;7.80;4.22;;;;;;;3.90;64.06;102523.75;5047361;28;20497;-65
2022/04/17 05:35:06;;;;;;;5.65;3.75;;;;;;;3.97;63.45;102510.72;5045995;28;20605;-64
2022/04/17 05:37:34;;;;;;;6.57;4.10;;;;;;;4.04;63.56;102520.25;5032594;28;20483;-63
2022/04/17 05:40:01;;;;;;;8.63;4.43;;;;;;;4.15;62.89;102519.38;5042322;28;20506;-63
2022/04/17 05:42:29;;;;;;;4.97;3.67;;;;;;;4.29;61.93;102520.22;5052525;28;20103;-64
2022/04/17 05:44:56;;;;;;;7.35;4.20;;;;;;;4.40;61.48;102522.78;5047057;28;20083;-63
2022/04/17 05:47:23;;;;;;;6.35;4.18;;;;;;;4.47;61.45;102511.47;5015480;28;20052;-63
2022/04/17 05:49:51;;;;;;;7.07;4.40;;;;;;;4.60;61.41;102514.91;5027073;28;20056;-63
2022/04/17 05:52:18;;;;;;;6.03;4.03;;;;;;;4.71;60.93;102516.59;5026731;28;20073;-63
2022/04/17 05:54:45;;;;;;;5.68;3.90;;;;;;;4.82;59.51;102516.56;5047627;28;20049;-64
2022/04/17 05:57:12;;;;;;;5.55;3.85;;;;;;;4.96;58.43;102512.13;5030576;28;20073;-63
2022/04/17 05:59:40;;;;;;;6.35;3.47;;;;;;;5.14;58.04;102520.72;5036947;28;20460;-63
2022/04/17 06:02:08;;;;;;;5.78;3.10;;;;;;;5.31;56.78;102518.84;5035916;28;20072;-63
2022/04/17 06:04:38;;;;;;;4.75;2.90;;;;;;;5.47;56.10;102517.88;5021733;28;20127;-63
2022/04/17 06:07:05;;;;;;;6.68;3.35;;;;;;;5.63;55.57;102522.97;5037940;28;20248;-64
2022/04/17 06:09:33;;;;;;;10.57;4.63;;;;;;;5.75;54.68;102521.13;5040871;28;20061;-64
2022/04/17 06:12:00;;;;;;;5.10;3.22;;;;;;;5.90;53.80;102516.66;5041603;28;20057;-63
2022/04/17 06:14:28;;;;;;;5.25;3.38;;;;;;;6.02;53.63;102520.03;5039177;28;20053;-63
2022/04/17 06:16:55;;;;;;;4.15;2.90;;;;;;;6.26;53.71;102518.94;5041193;28;20064;-63
2022/04/17 06:19:23;;;;;;;6.22;3.30;;;;;;;6.40;53.28;102515.31;5032953;28;20123;-62
2022/04/17 06:21:50;;;;;;;6.40;2.90;;;;;;;6.56;52.16;102520.34;5040878;28;20523;-63
2022/04/17 06:24:17;;;;;;;6.38;3.35;;;;;;;6.65;52.71;102516.75;5034008;28;20111;-62
2022/04/17 06:26:45;;;;;;;4.55;2.88;;;;;;;6.80;51.82;102520.94;5043901;28;20072;-63
2022/04/17 06:29:15;;;;;;;4.88;2.67;;;;;;;6.99;51.17;102514.56;5037618;28;20044;-64
2022/04/17 06:31:45;;;;;;;4.50;2.85;;;;;;;7.23;49.01;102512.47;5019804;28;20041;-64
2022/04/17 06:34:12;;;;;;;5.03;2.75;;;;;;;7.30;49.07;102506.25;5037280;28;20444;-64
2022/04/17 06:36:41;;;;;;;3.58;2.75;;;;;;;7.42;48.98;102510.44;5047063;28;20162;-64
2022/04/17 06:39:09;;;;;;;3.55;2.47;;;;;;;7.52;47.89;102515.53;5037642;28;20467;-62
2022/04/17 06:41:36;;;;;;;4.28;2.28;;;;;;;7.67;46.85;102503.06;5022997;28;20531;-63
2022/04/17 06:44:03;;;;;;;3.05;1.88;;;;;;;7.70;45.99;102506.50;5040394;28;20049;-62
2022/04/17 06:46:32;;;;;;;2.50;1.70;;;;;;;7.80;45.95;102502.81;5039399;28;20532;-63
2022/04/17 06:49:00;;;;;;;2.42;1.60;;;;;;;7.81;46.00;102498.44;5036907;28;20144;-63
2022/04/17 06:51:27;;;;;;;4.38;2.15;;;;;;;7.89;45.83;102504.41;5047837;28;20648;-63
2022/04/17 06:53:54;;;;;;;2.53;1.83;;;;;;;8.08;45.48;102491.81;5046883;28;20084;-63
2022/04/17 06:56:22;;;;;;;4.53;1.90;;;;;;;8.24;45.27;102498.53;5032531;28;20099;-63
2022/04/17 06:58:52;;;;;;;3.70;1.75;;;;;;;8.46;45.30;102498.09;5041548;28;20368;-63
2022/04/17 07:01:19;;;;;;;2.95;1.75;;;;;;;8.59;44.65;102494.34;5043912;28;20076;-63
2022/04/17 07:03:47;;;;;;;2.83;1.80;;;;;;;8.65;43.88;102496.84;5032527;28;20045;-63
2022/04/17 07:06:15;;;;;;;3.08;1.80;;;;;;;8.69;43.44;102493.28;5045049;28;20048;-63
2022/04/17 07:08:44;;;;;;;3.70;2.17;;;;;;;8.92;43.27;102482.28;5037724;28;20059;-62
2022/04/17 07:11:11;;;;;;;2.80;1.70;;;;;;;9.00;43.22;102482.94;5024399;28;20040;-63
2022/04/17 07:13:39;;;;;;;2.78;1.65;;;;;;;9.16;42.73;102479.97;5043206;28;20077;-63
2022/04/17 07:16:07;;;;;;;3.25;1.73;;;;;;;9.29;42.13;102484.03;5036549;28;20056;-63
2022/04/17 07:18:34;;;;;;;3.03;1.63;;;;;;;9.38;42.47;102468.91;5016029;28;20252;-63
2022/04/17 07:21:04;;;;;;;3.88;1.90;;;;;;;9.59;42.09;102466.63;5039832;28;20034;-64
2022/04/17 07:23:31;;;;;;;5.47;2.55;;;;;;;9.67;41.74;102475.19;5033129;28;20049;-64
2022/04/17 07:25:59;;;;;;;3.63;2.20;;;;;;;9.81;41.11;102469.56;5039404;28;20080;-64
2022/04/17 07:28:26;;;;;;;3.30;1.90;;;;;;;9.93;41.66;102458.72;5040702;28;20049;-63
2022/04/17 07:30:55;;;;;;;4.15;1.90;;;;;;;10.00;41.51;102465.56;5019717;28;20053;-63
2022/04/17 07:33:24;;;;;;;2.83;1.88;;;;;;;10.09;41.56;102464.47;5049515;28;20200;-63
2022/04/17 07:35:52;;;;;;;3.33;2.08;;;;;;;10.05;40.65;102466.31;5040475;28;20273;-63
2022/04/17 07:38:20;;;;;;;4.60;2.13;;;;;;;10.22;40.46;102462.31;5043132;28;20063;-62
2022/04/17 07:40:49;;;;;;;3.22;2.03;;;;;;;10.34;40.53;102464.66;5037237;28;20041;-63
2022/04/17 07:43:19;;;;;;;3.83;2.38;;;;;;;10.49;40.14;102461.59;5048431;28;20068;-63
2022/04/17 07:45:47;;;;;;;3.55;2.20;;;;;;;10.45;40.67;102454.69;5025652;28;20095;-63
2022/04/17 07:48:15;;;;;;;3.75;2.15;;;;;;;10.69;40.28;102453.09;5044662;28;20051;-62
2022/04/17 07:50:44;;;;;;;3.83;2.20;;;;;;;10.67;40.96;102454.03;5041061;28;20057;-62
2022/04/17 07:53:12;;;;;;;2.40;1.90;;;;;;;10.79;40.21;102459.78;5043533;28;20178;-62
2022/04/17 07:55:39;;;;;;;4.65;2.15;;;;;;;10.96;40.08;102456.66;5040430;28;20065;-64
2022/04/17 07:58:12;;;;;;;3.90;2.20;;;;;;;11.08;40.29;102464.19;5051032;28;20053;-63
2022/04/17 08:00:57;;;;;;;3.30;1.95;;;;;;;11.12;39.21;102457.91;5048532;28;20144;-63
2022/04/17 08:03:35;;;;;;;3.85;1.75;;;;;;;11.23;38.86;102449.63;5047521;28;20055;-63
2022/04/17 08:06:05;;;;;;;3.03;2.13;;;;;;;11.17;39.19;102452.47;5047467;28;20045;-63
2022/04/17 08:08:39;;;;;;;3.75;2.00;;;;;;;11.35;39.20;102446.59;5043530;28;20106;-62
2022/04/17 08:11:08;;;;;;;3.00;1.92;;;;;;;11.53;38.44;102449.53;5045740;28;20049;-63
2022/04/17 08:13:35;;;;;;;5.00;1.98;;;;;;;11.75;38.20;102442.63;5046475;28;20182;-62
2022/04/17 08:16:08;;;;;;;4.85;2.10;;;;;;;11.91;38.84;102438.53;5027546;28;20440;-63
2022/04/17 08:18:41;;;;;;;3.75;2.42;;;;;;;12.08;38.29;102435.31;5041888;28;20429;-62
2022/04/17 08:21:10;;;;;;;4.30;2.67;;;;;;;12.00;38.52;102433.84;5027957;28;20087;-63
2022/04/17 08:23:39;;;;;;;3.13;2.30;;;;;;;12.29;37.85;102424.84;5042125;28;20044;-63
2022/04/17 08:26:07;;;;;;;4.32;2.65;;;;;;;12.51;38.16;102428.41;5050306;28;20528;-63
2022/04/17 08:28:34;;;;;;;3.80;2.55;;;;;;;12.86;38.54;102423.53;5054046;28;20084;-63
2022/04/17 08:31:01;;;;;;;4.90;2.80;;;;;;;13.14;37.87;102410.91;5035271;28;20156;-64
2022/04/17 08:33:29;;;;;;;4.18;2.90;;;;;;;13.39;37.07;102410.78;5039954;28;20481;-65
2022/04/17 08:35:59;;;;;;;4.68;2.58;;;;;;;13.53;36.45;102404.91;5027663;28;20049;-64
2022/04/17 08:38:26;;;;;;;3.90;2.72;;;;;;;13.67;35.58;102399.88;5034381;28;20238;-64
2022/04/17 08:40:56;;;;;;;6.90;3.13;;;;;;;13.84;35.44;102404.44;5036591;28;20069;-64
2022/04/17 08:43:25;;;;;;;4.05;2.70;;;;;;;13.82;36.05;102395.69;5044841;28;20394;-64
2022/04/17 08:45:57;;;;;;;5.72;3.10;;;;;;;14.12;36.36;102395.25;5028804;28;20045;-64
2022/04/17 08:48:27;;;;;;;6.32;3.35;;;;;;;14.29;35.03;102399.78;5057661;22;20057;-64
2022/04/17 08:50:55;;;;;;;7.93;2.90;;;;;;;14.14;34.80;102398.69;5041072;28;20225;-64
2022/04/17 08:53:24;;;;;;;8.38;2.72;;;;;;;14.16;34.94;102395.03;5032463;28;20095;-64
2022/04/17 08:55:54;;;;;;;7.78;2.47;;;;;;;14.30;35.80;102389.09;5048570;28;21129;-62
2022/04/17 08:58:24;;;;;;;5.47;2.55;;;;;;;14.46;35.00;102385.75;5043819;28;20176;-63
2022/04/17 09:00:51;;;;;;;3.97;2.20;;;;;;;14.28;35.68;102390.13;5030936;28;20053;-63
2022/04/17 09:03:22;;;;;;;4.95;3.08;;;;;;;14.43;34.91;102386.75;5031980;28;20037;-63
2022/04/17 09:05:51;;;;;;;6.68;3.92;;;;;;;14.14;35.24;102383.66;5032537;28;20389;-64
2022/04/17 09:08:23;;;;;;;9.10;4.07;;;;;;;13.88;35.80;102383.97;5022123;28;20052;-63
2022/04/17 09:10:55;;;;;;;5.55;3.03;;;;;;;14.13;36.46;102381.91;5020569;28;20642;-62
2022/04/17 09:13:33;;;;;;;4.75;2.85;;;;;;;14.34;35.49;102380.09;5031740;28;20065;-63
2022/04/17 09:16:01;;;;;;;4.82;3.40;;;;;;;14.09;35.34;102375.03;5032849;28;20123;-63
2022/04/17 09:18:30;;;;;;;5.28;3.30;;;;;;;14.14;35.50;102361.63;5035013;28;20065;-62
2022/04/17 09:21:01;;;;;;;6.28;3.28;;;;;;;14.24;35.77;102354.97;5038963;28;20053;-62
2022/04/17 09:23:36;;;;;;;7.07;3.47;;;;;;;14.18;36.22;102360.53;5035503;28;20541;-64
2022/04/17 09:26:05;;;;;;;6.15;3.83;;;;;;;14.39;35.24;102361.31;5010520;28;20555;-63
2022/04/17 09:28:34;;;;;;;6.22;3.40;;;;;;;14.52;35.77;102361.63;5036921;28;20144;-63
2022/04/17 09:31:11;;;;;;;6.45;3.25;;;;;;;14.30;34.63;102351.16;5033529;28;20074;-63
2022/04/17 09:33:40;;;;;;;5.25;3.13;;;;;;;14.63;34.61;102344.28;5036761;28;20053;-64
2022/04/17 09:36:08;;;;;;;4.90;3.17;;;;;;;14.99;34.42;102338.09;5035136;28;20038;-63
2022/04/17 09:38:47;;;;;;;5.03;3.20;;;;;;;15.17;34.45;102338.94;5031629;28;20079;-65
2022/04/17 09:41:15;;;;;;;4.43;2.80;;;;;;;15.26;33.48;102342.94;5033058;28;20104;-64
2022/04/17 09:43:47;;;;;;;6.47;3.72;;;;;;;15.43;33.20;102342.91;5035024;28;21186;-64
2022/04/17 09:46:14;;;;;;;4.93;3.05;;;;;;;15.17;32.99;102336.28;5036239;28;20268;-64
2022/04/17 09:48:45;;;;;;;5.70;2.90;;;;;;;15.24;33.75;102328.91;5032472;28;20574;-63
2022/04/17 09:51:28;;;;;;;5.40;3.15;;;;;;;15.17;33.99;102323.03;5031629;28;20060;-63
2022/04/17 09:54:05;;;;;;;4.75;2.90;;;;;;;15.19;34.03;102322.03;5029150;28;20745;-64
2022/04/17 09:56:39;;;;;;;5.28;2.78;;;;;;;14.94;33.55;102321.53;5040006;28;20037;-63
2022/04/17 09:59:17;;;;;;;5.82;3.25;;;;;;;14.86;33.91;102323.72;5023537;28;20064;-63
2022/04/17 10:01:55;;;;;;;6.70;2.78;;;;;;;14.59;34.07;102320.63;5032957;28;20060;-63
2022/04/17 10:04:24;;;;;;;6.10;3.28;;;;;;;14.77;33.66;102310.91;5033291;28;20045;-63
2022/04/17 10:06:53;;;;;;;5.78;2.67;;;;;;;15.07;33.91;102304.06;5033807;28;20072;-63
2022/04/17 10:09:21;;;;;;;5.03;2.83;;;;;;;15.24;33.26;102308.53;5025451;28;20103;-63
2022/04/17 10:11:49;;;;;;;4.18;2.83;;;;;;;15.68;33.19;102308.88;5036271;28;20073;-64
2022/04/17 10:14:18;;;;;;;4.32;2.80;;;;;;;15.57;32.91;102302.38;5037334;28;20386;-64
2022/04/17 10:16:46;;;;;;;4.35;2.85;;;;;;;15.40;32.91;102300.59;5034776;28;20120;-63
2022/04/17 10:19:15;;;;;;;4.28;3.00;;;;;;;15.18;33.54;102285.81;5036461;28;20081;-63
2022/04/17 10:21:42;;;;;;;3.92;2.45;;;;;;;14.88;33.81;102277.63;5037285;28;20080;-63
2022/04/17 10:24:12;;;;;;;4.85;2.67;;;;;;;15.22;34.69;102288.31;5035821;28;20089;-63
2022/04/17 10:26:48;;;;;;;4.00;2.65;;;;;;;15.44;33.20;102288.91;5030011;28;20054;-63
2022/04/17 10:29:41;;;;;;;4.13;2.75;;;;;;;16.10;33.34;102277.38;5034352;28;20057;-63
2022/04/17 10:32:29;;;;;;;5.35;2.72;;;;;;;16.47;31.18;102276.16;5035835;28;20030;-63
2022/04/17 10:35:17;;;;;;;6.65;2.55;;;;;;;16.36;31.29;102278.59;5038050;28;20601;-64
2022/04/17 10:38:18;;;;;;;3.88;1.95;;;;;;;16.05;32.73;102282.97;5018914;28;20095;-64
2022/04/17 10:40:54;;;;;;;3.67;2.03;;;;;;;16.40;31.70;102269.50;5036397;28;20053;-63
2022/04/17 10:43:21;;;;;;;;;;;;;;;16.63;31.97;102276.13;5048815;28;20077;-63
2022/04/17 10:46:14;;;;;;;3.30;1.92;;;;;;;16.75;31.64;102278.13;5023869;28;19932;-63
2022/04/17 10:48:44;;;;;;;4.15;1.95;;;;;;;16.68;31.50;102274.91;5033969;28;20188;-64
2022/04/17 10:51:16;;;;;;;3.72;1.83;;;;;;;16.68;30.36;102272.25;5028944;28;20103;-64
2022/04/17 10:53:57;;;;;;;5.82;2.47;;;;;;;16.57;29.90;102280.03;5039278;28;20088;-63
2022/04/17 10:56:25;;;;;;;3.47;2.00;;;;;;;16.90;31.16;102266.56;5031027;28;20415;-64
2022/04/17 10:58:54;;;;;;;3.13;2.15;;;;;;;17.13;30.27;102264.34;5039562;28;20957;-63
2022/04/17 11:01:43;;;;;;;3.17;2.00;;;;;;;17.51;31.13;102259.31;5038052;28;20056;-63
2022/04/17 11:04:15;;;;;;;4.85;2.30;;;;;;;18.09;31.10;102252.97;5036530;28;20052;-63
2022/04/17 11:06:46;;;;;;;;;;;;;;;18.53;28.10;102248.34;5038530;28;20051;-63
2022/04/17 11:09:18;;;;;;;3.80;1.95;;;;;;;18.88;26.60;102246.88;5034672;28;19929;-64
2022/04/17 11:11:46;;;;;;;3.05;1.90;;;;;;;19.23;26.29;102257.78;5027109;28;20637;-63
2022/04/17 11:14:19;;;;;;;3.25;1.90;;;;;;;19.51;25.17;102242.50;5037163;28;20053;-64
2022/04/17 11:16:57;;;;;;;2.88;1.65;;;;;;;19.73;25.92;102248.03;5027512;28;20033;-64
2022/04/17 11:19:25;;;;;;;2.85;1.83;;;;;;;19.47;24.66;102246.34;5036615;28;20057;-63
2022/04/17 11:21:56;;;;;;;3.30;1.70;;;;;;;19.49;25.15;102242.56;5035566;28;20480;-63
2022/04/17 11:24:23;;;;;;;1.75;1.30;;;;;;;19.60;25.43;102240.97;5032326;28;20053;-65
2022/04/17 11:26:52;;;;;;;3.30;1.90;;;;;;;19.16;25.58;102224.44;5031857;28;20467;-63
2022/04/17 11:29:39;;;;;;;2.70;1.55;;;;;;;18.78;25.97;102218.22;5031924;28;20421;-63
2022/04/17 11:32:18;;;;;;;3.28;1.80;;;;;;;17.95;24.78;102221.91;5034985;28;20061;-64
2022/04/17 11:34:52;;;;;;;2.20;1.33;;;;;;;17.93;26.12;102223.81;5035074;28;20528;-64
2022/04/17 11:37:20;;;;;;;2.25;1.52;;;;;;;17.17;26.05;102221.47;5032677;28;20433;-63
2022/04/17 11:39:48;;;;;;;2.05;1.58;;;;;;;16.48;27.35;102219.41;5036280;28;20091;-63
2022/04/17 11:42:17;;;;;;;2.35;1.50;;;;;;;16.55;28.10;102214.56;5027648;28;20045;-63
2022/04/17 11:44:48;;;;;;;3.17;1.60;;;;;;;16.75;28.50;102213.41;5036465;28;20049;-64
2022/04/17 11:47:17;;;;;;;3.92;1.63;;;;;;;17.24;29.26;102205.97;5032503;28;20045;-64
2022/04/17 11:49:45;;;;;;;3.03;1.52;;;;;;;17.60;30.01;102192.16;5032006;28;20149;-62
2022/04/17 11:52:21;;;;;;;5.20;1.98;;;;;;;18.16;28.39;102185.00;5035034;28;20171;-64
2022/04/17 11:54:49;;;;;;;4.70;2.58;;;;;;;18.55;29.05;102183.31;5032962;28;20329;-64